createdAt,value
2022-10-06T00:00:39.041Z,1006.1
2022-10-06T00:01:36.272Z,1006.1
2022-10-06T00:02:25.481Z,1006.1
2022-10-06T00:03:21.293Z,1006.1
2022-10-06T00:04:35.615Z,1006.1
2022-10-06T00:05:21.707Z,1006.1
2022-10-06T00:06:27.969Z,1006.1
2022-10-06T00:07:34.613Z,1006.1
2022-10-06T00:08:34.471Z,1006.1
2022-10-06T00:09:25.613Z,1006.2
2022-10-06T00:10:23.733Z,1006.2
2022-10-06T00:11:36.150Z,1006.2
2022-10-06T00:12:27.675Z,1006.2
2022-10-06T00:13:26.729Z,1006.2
2022-10-06T00:14:27.887Z,1006.2
2022-10-06T00:15:36.032Z,1006.2
2022-10-06T00:16:28.148Z,1006.2
2022-10-06T00:17:23.941Z,1006.2
2022-10-06T00:18:32.007Z,1006.2
2022-10-06T00:19:29.649Z,1006.2
2022-10-06T00:20:28.637Z,1006.2
2022-10-06T00:21:29.068Z,1006.2
2022-10-06T00:22:21.450Z,1006.2
2022-10-06T00:23:25.696Z,1006.2
2022-10-06T00:24:24.458Z,1006.2
2022-10-06T00:25:46.571Z,1006.2
2022-10-06T00:26:32.610Z,1006.2
2022-10-06T00:27:23.419Z,1006.1
2022-10-06T00:28:37.661Z,1006.1
2022-10-06T00:29:25.254Z,1006.1
2022-10-06T00:30:28.299Z,1006.1
2022-10-06T00:31:21.586Z,1006.1
2022-10-06T00:32:26.769Z,1006.1
2022-10-06T00:33:29.728Z,1006.1
2022-10-06T00:34:20.234Z,1006.1
2022-10-06T00:35:40.245Z,1006.1
2022-10-06T00:36:33.309Z,1006.1
2022-10-06T00:37:22.051Z,1006.1
2022-10-06T00:38:23.044Z,1006.1
2022-10-06T00:39:29.093Z,1006.1
2022-10-06T00:40:20.836Z,1006.1
2022-10-06T00:41:23.417Z,1006.1
2022-10-06T00:42:33.508Z,1006.2
2022-10-06T00:43:33.902Z,1006.2
2022-10-06T00:44:25.312Z,1006.2
2022-10-06T00:45:24.973Z,1006.2
2022-10-06T00:46:35.007Z,1006.2
2022-10-06T00:47:27.161Z,1006.2
2022-10-06T00:48:23.410Z,1006.2
2022-10-06T00:49:35.053Z,1006.2
2022-10-06T00:50:31.449Z,1006.2
2022-10-06T00:51:25.197Z,1006.2
2022-10-06T00:52:25.642Z,1006.2
2022-10-06T00:53:37.405Z,1006.2
2022-10-06T00:54:31.819Z,1006.2
2022-10-06T00:55:25.003Z,1006.2
2022-10-06T00:56:35.997Z,1006.2
2022-10-06T00:57:32.476Z,1006.3
2022-10-06T00:58:26.135Z,1006.3
2022-10-06T00:59:21.336Z,1006.3
2022-10-06T01:00:41.568Z,1006.3
2022-10-06T01:01:35.566Z,1006.3
2022-10-06T01:02:26.229Z,1006.3
2022-10-06T01:03:33.671Z,1006.3
2022-10-06T02:26:25.576Z,1006.6
2022-10-06T02:27:23.433Z,1006.6
2022-10-06T02:28:32.319Z,1006.7
2022-10-06T02:29:26.711Z,1006.7
2022-10-06T02:30:33.127Z,1006.8
2022-10-06T02:31:37.799Z,1006.8
2022-10-06T02:32:43.341Z,1006.8
2022-10-06T02:33:31.374Z,1006.8
2022-10-06T02:34:27.527Z,1006.8
2022-10-06T03:53:29.896Z,1006.9
2022-10-06T03:54:25.766Z,1006.9
2022-10-06T03:55:27.615Z,1006.9
2022-10-06T03:56:31.354Z,1006.9
2022-10-06T03:57:39.261Z,1006.9
2022-10-06T03:58:21.470Z,1006.9
2022-10-06T03:59:31.148Z,1006.9
2022-10-06T04:00:23.513Z,1006.9
2022-10-06T04:01:26.402Z,1006.9
2022-10-06T04:02:37.128Z,1006.9
2022-10-06T04:03:29.418Z,1006.9
2022-10-06T04:04:26.032Z,1006.9
2022-10-06T04:05:20.711Z,1006.9
2022-10-06T04:06:22.812Z,1006.9
2022-10-06T04:07:27.723Z,1006.9
2022-10-06T04:08:22.498Z,1007.0
2022-10-06T04:09:22.192Z,1007.0
2022-10-06T04:10:29.964Z,1007.0
2022-10-06T04:11:23.522Z,1007.0
2022-10-06T04:12:22.038Z,1007.1
2022-10-06T04:13:33.030Z,1007.1
2022-10-06T04:14:27.399Z,1007.1
2022-10-06T04:15:23.967Z,1007.1
2022-10-06T04:16:27.825Z,1007.1
2022-10-06T04:17:29.010Z,1007.1
2022-10-06T04:18:23.846Z,1007.1
2022-10-06T04:19:19.494Z,1007.1
2022-10-06T04:20:25.507Z,1007.1
2022-10-06T04:21:27.858Z,1007.1
2022-10-06T04:22:22.622Z,1007.1
2022-10-06T04:23:24.215Z,1007.1
2022-10-06T04:24:22.103Z,1007.1
2022-10-06T04:25:26.022Z,1007.1
2022-10-06T04:26:19.800Z,1007.1
2022-10-06T04:27:27.731Z,1007.1
2022-10-06T04:28:25.809Z,1007.1
2022-10-06T04:29:24.817Z,1007.1
2022-10-06T04:30:32.516Z,1007.1
2022-10-06T04:31:31.722Z,1007.1
2022-10-06T04:32:25.677Z,1007.0
2022-10-06T04:33:19.677Z,1007.0
2022-10-06T04:34:22.517Z,1007.0
2022-10-06T04:35:25.756Z,1007.0
2022-10-06T04:36:30.598Z,1007.0
2022-10-06T04:37:32.914Z,1007.0
2022-10-06T04:38:31.341Z,1007.1
2022-10-06T04:39:25.431Z,1007.1
2022-10-06T04:40:22.599Z,1007.1
2022-10-06T04:41:31.354Z,1007.1
2022-10-06T04:42:34.867Z,1007.1
2022-10-06T04:43:25.699Z,1007.1
2022-10-06T04:44:35.801Z,1007.1
2022-10-06T04:45:27.905Z,1007.1
2022-10-06T04:46:44.550Z,1007.1
2022-10-06T04:47:23.672Z,1007.1
2022-10-06T04:48:32.966Z,1007.1
2022-10-06T04:49:25.348Z,1007.2
2022-10-06T04:50:21.568Z,1007.2
2022-10-06T04:51:28.555Z,1007.2
2022-10-06T04:52:29.063Z,1007.2
2022-10-06T04:53:25.540Z,1007.2
2022-10-06T04:54:19.597Z,1007.2
2022-10-06T04:55:29.454Z,1007.2
2022-10-06T04:56:26.215Z,1007.2
2022-10-06T04:57:21.443Z,1007.1
2022-10-06T04:58:25.956Z,1007.1
2022-10-06T04:59:28.790Z,1007.1
2022-10-06T05:00:23.418Z,1007.2
2022-10-06T05:01:32.043Z,1007.2
2022-10-06T05:02:31.380Z,1007.2
2022-10-06T05:03:28.020Z,1007.2
2022-10-06T05:04:21.700Z,1007.2
2022-10-06T05:05:25.090Z,1007.2
2022-10-06T05:06:31.713Z,1007.2
2022-10-06T05:07:23.701Z,1007.2
2022-10-06T05:08:21.321Z,1007.2
2022-10-06T05:09:26.875Z,1007.2
2022-10-06T05:10:30.514Z,1007.2
2022-10-06T05:11:25.850Z,1007.2
2022-10-06T05:12:25.356Z,1007.2
2022-10-06T05:13:26.369Z,1007.2
2022-10-06T05:14:29.488Z,1007.2
2022-10-06T05:15:19.531Z,1007.2
2022-10-06T05:16:21.253Z,1007.2
2022-10-06T05:17:24.778Z,1007.2
2022-10-06T05:18:22.967Z,1007.2
2022-10-06T05:19:23.459Z,1007.2
2022-10-06T05:20:30.899Z,1007.2
2022-10-06T05:21:23.016Z,1007.2
2022-10-06T05:22:20.336Z,1007.2
2022-10-06T05:23:26.507Z,1007.2
2022-10-06T05:24:28.858Z,1007.2
2022-10-06T05:25:27.760Z,1007.1
2022-10-06T05:26:33.298Z,1007.1
2022-10-06T05:27:30.887Z,1007.1
2022-10-06T05:28:26.956Z,1007.0
2022-10-06T05:29:23.907Z,1007.0
2022-10-06T05:30:26.391Z,1006.9
2022-10-06T05:31:26.125Z,1006.9
2022-10-06T05:32:23.142Z,1007.0
2022-10-06T05:33:33.994Z,1007.0
2022-10-06T05:34:21.352Z,1007.1
2022-10-06T05:35:23.820Z,1007.1
2022-10-06T05:36:28.740Z,1007.2
2022-10-06T05:37:29.663Z,1007.2
2022-10-06T05:38:28.392Z,1007.2
2022-10-06T05:39:23.320Z,1007.1
2022-10-06T05:40:19.566Z,1007.1
2022-10-06T05:41:24.682Z,1007.1
2022-10-06T05:42:28.744Z,1007.2
2022-10-06T05:43:19.753Z,1007.2
2022-10-06T05:44:29.742Z,1007.2
2022-10-06T05:45:29.107Z,1007.2
2022-10-06T05:46:21.741Z,1007.2
2022-10-06T05:47:25.154Z,1007.2
2022-10-06T05:48:30.735Z,1007.2
2022-10-06T05:49:24.917Z,1007.2
2022-10-06T05:50:21.154Z,1007.2
2022-10-06T05:51:30.304Z,1007.2
2022-10-06T05:52:22.663Z,1007.2
2022-10-06T05:53:31.964Z,1007.2
2022-10-06T05:54:29.155Z,1007.2
2022-10-06T05:55:20.845Z,1007.2
2022-10-06T05:56:23.573Z,1007.2
2022-10-06T05:57:19.708Z,1007.2
2022-10-06T05:58:29.937Z,1007.2
2022-10-06T05:59:22.552Z,1007.2
2022-10-06T06:00:23.350Z,1007.2
2022-10-06T06:01:32.615Z,1007.2
2022-10-06T06:02:28.100Z,1007.2
2022-10-06T06:03:26.164Z,1007.2
2022-10-06T06:04:25.035Z,1007.3
2022-10-06T06:05:34.564Z,1007.3
2022-10-06T06:06:30.767Z,1007.3
2022-10-06T06:07:23.925Z,1007.3
2022-10-06T06:08:32.712Z,1007.3
2022-10-06T06:09:29.113Z,1007.4
2022-10-06T06:10:23.977Z,1007.4
2022-10-06T06:11:21.767Z,1007.4
2022-10-06T06:12:29.845Z,1007.4
2022-10-06T06:13:29.017Z,1007.3
2022-10-06T06:14:21.685Z,1007.3
2022-10-06T06:15:22.843Z,1007.3
2022-10-06T06:16:29.139Z,1007.3
2022-10-06T06:17:26.065Z,1007.3
2022-10-06T06:18:22.176Z,1007.4
2022-10-06T06:19:31.166Z,1007.4
2022-10-06T06:20:28.900Z,1007.4
2022-10-06T06:21:22.983Z,1007.4
2022-10-06T06:22:36.478Z,1007.4
2022-10-06T06:23:30.384Z,1007.4
2022-10-06T06:24:28.923Z,1007.4
2022-10-06T06:25:21.894Z,1007.4
2022-10-06T06:26:33.582Z,1007.4
2022-10-06T06:27:25.619Z,1007.4
2022-10-06T06:28:25.194Z,1007.4
2022-10-06T06:29:23.857Z,1007.4
2022-10-06T06:30:28.805Z,1007.4
2022-10-06T06:31:24.004Z,1007.4
2022-10-06T06:32:24.065Z,1007.4
2022-10-06T06:33:19.848Z,1007.4
2022-10-06T06:34:29.203Z,1007.4
2022-10-06T06:35:23.065Z,1007.5
2022-10-06T06:36:26.879Z,1007.4
2022-10-06T06:37:21.402Z,1007.4
2022-10-06T06:38:23.877Z,1007.4
2022-10-06T06:39:28.400Z,1007.4
2022-10-06T06:40:23.812Z,1007.4
2022-10-06T06:41:40.863Z,1007.4
2022-10-06T06:42:21.814Z,1007.4
2022-10-06T06:43:35.281Z,1007.5
2022-10-06T06:44:27.032Z,1007.5
2022-10-06T06:45:24.829Z,1007.5
2022-10-06T06:46:20.070Z,1007.5
2022-10-06T06:47:29.488Z,1007.5
2022-10-06T06:48:20.368Z,1007.5
2022-10-06T06:49:30.801Z,1007.5
2022-10-06T06:50:25.820Z,1007.5
2022-10-06T06:51:28.032Z,1007.6
2022-10-06T06:52:24.852Z,1007.6
2022-10-06T06:53:21.265Z,1007.6
2022-10-06T06:54:35.562Z,1007.6
2022-10-06T06:55:24.624Z,1007.6
2022-10-06T06:56:23.449Z,1007.6
2022-10-06T06:57:36.056Z,1007.6
2022-10-06T06:58:31.729Z,1007.7
2022-10-06T06:59:26.594Z,1007.7
2022-10-06T07:00:22.882Z,1007.7
2022-10-06T07:01:31.969Z,1007.7
2022-10-06T07:02:29.825Z,1007.7
2022-10-06T07:03:44.903Z,1007.7
2022-10-06T07:04:31.209Z,1007.7
2022-10-06T07:05:32.011Z,1007.7
2022-10-06T07:06:28.065Z,1007.7
2022-10-06T07:07:24.121Z,1007.7
2022-10-06T07:08:24.229Z,1007.7
2022-10-06T07:09:34.389Z,1007.7
2022-10-06T07:10:21.455Z,1007.8
2022-10-06T07:11:34.123Z,1007.8
2022-10-06T07:12:33.481Z,1007.8
2022-10-06T07:13:25.863Z,1007.8
2022-10-06T07:14:20.876Z,1007.8
2022-10-06T07:15:19.710Z,1007.8
2022-10-06T07:16:25.482Z,1007.8
2022-10-06T07:17:22.986Z,1007.8
2022-10-06T07:18:25.593Z,1007.8
2022-10-06T07:19:29.672Z,1007.8
2022-10-06T07:20:23.495Z,1007.8
2022-10-06T07:21:19.746Z,1007.8
2022-10-06T07:22:30.573Z,1007.9
2022-10-06T07:23:28.027Z,1007.9
2022-10-06T07:24:23.458Z,1007.9
2022-10-06T07:25:26.775Z,1007.9
2022-10-06T07:26:22.031Z,1007.9
2022-10-06T07:27:24.497Z,1007.9
2022-10-06T07:28:19.988Z,1007.9
2022-10-06T07:29:32.879Z,1007.9
2022-10-06T07:30:22.097Z,1007.9
2022-10-06T07:31:22.688Z,1007.9
2022-10-06T07:32:31.754Z,1007.9
2022-10-06T07:33:30.516Z,1007.9
2022-10-06T07:34:25.811Z,1007.9
2022-10-06T07:35:20.991Z,1008.0
2022-10-06T07:36:37.875Z,1007.9
2022-10-06T07:37:20.012Z,1008.0
2022-10-06T07:38:24.800Z,1008.0
2022-10-06T07:39:37.361Z,1008.0
2022-10-06T07:40:32.265Z,1008.0
2022-10-06T07:41:25.267Z,1008.0
2022-10-06T07:42:22.741Z,1008.0
2022-10-06T07:43:30.727Z,1008.0
2022-10-06T07:44:28.955Z,1008.1
2022-10-06T07:45:21.846Z,1008.1
2022-10-06T07:46:31.434Z,1008.1
2022-10-06T07:47:27.959Z,1008.1
2022-10-06T07:48:24.793Z,1008.1
2022-10-06T07:49:19.789Z,1008.2
2022-10-06T07:50:30.031Z,1008.1
2022-10-06T07:51:28.667Z,1008.1
2022-10-06T07:52:22.233Z,1008.1
2022-10-06T07:53:31.489Z,1008.1
2022-10-06T07:54:29.031Z,1008.1
2022-10-06T07:55:23.902Z,1008.1
2022-10-06T07:56:25.107Z,1008.1
2022-10-06T07:57:36.960Z,1008.1
2022-10-06T07:58:25.689Z,1008.1
2022-10-06T07:59:22.800Z,1008.1
2022-10-06T08:00:24.881Z,1008.1
2022-10-06T08:01:27.592Z,1008.1
2022-10-06T08:02:25.678Z,1008.1
2022-10-06T08:03:19.771Z,1008.1
2022-10-06T08:04:29.466Z,1008.1
2022-10-06T08:05:25.691Z,1008.1
2022-10-06T08:06:37.710Z,1008.1
2022-10-06T08:07:27.772Z,1008.1
2022-10-06T08:08:21.770Z,1008.1
2022-10-06T08:09:29.463Z,1008.2
2022-10-06T08:10:22.854Z,1008.2
2022-10-06T08:11:27.104Z,1008.2
2022-10-06T08:12:25.694Z,1008.2
2022-10-06T08:13:25.136Z,1008.2
2022-10-06T08:14:33.860Z,1008.2
2022-10-06T08:15:33.157Z,1008.2
2022-10-06T08:16:23.596Z,1008.2
2022-10-06T08:17:19.739Z,1008.2
2022-10-06T08:18:45.462Z,1008.2
2022-10-06T08:19:22.340Z,1008.2
2022-10-06T08:20:21.521Z,1008.2
2022-10-06T08:21:35.030Z,1008.2
2022-10-06T08:22:29.329Z,1008.2
2022-10-06T08:23:24.829Z,1008.2
2022-10-06T08:24:20.169Z,1008.2
2022-10-06T08:25:30.821Z,1008.2
2022-10-06T08:26:31.082Z,1008.2
2022-10-06T08:27:24.803Z,1008.2
2022-10-06T08:28:31.896Z,1008.2
2022-10-06T08:29:28.575Z,1008.2
2022-10-06T08:30:28.773Z,1008.2
2022-10-06T08:31:24.506Z,1008.2
2022-10-06T08:32:29.713Z,1008.2
2022-10-06T08:33:27.720Z,1008.3
2022-10-06T08:34:22.883Z,1008.3
2022-10-06T08:35:31.905Z,1008.3
2022-10-06T08:36:32.319Z,1008.3
2022-10-06T08:37:24.049Z,1008.3
2022-10-06T08:38:22.221Z,1008.3
2022-10-06T08:39:33.735Z,1008.3
2022-10-06T08:40:29.000Z,1008.3
2022-10-06T08:41:26.279Z,1008.3
2022-10-06T08:42:25.375Z,1008.3
2022-10-06T08:43:28.074Z,1008.3
2022-10-06T08:44:27.980Z,1008.3
2022-10-06T08:45:19.480Z,1008.3
2022-10-06T08:46:23.900Z,1008.3
2022-10-06T08:47:27.237Z,1008.3
2022-10-06T08:48:22.011Z,1008.3
2022-10-06T08:49:26.748Z,1008.3
2022-10-06T08:50:29.235Z,1008.3
2022-10-06T08:51:23.993Z,1008.3
2022-10-06T08:52:23.621Z,1008.3
2022-10-06T08:53:24.435Z,1008.3
2022-10-06T08:54:26.572Z,1008.3
2022-10-06T08:55:25.309Z,1008.3
2022-10-06T08:56:29.292Z,1008.3
2022-10-06T08:57:29.837Z,1008.3
2022-10-06T08:58:26.897Z,1008.3
2022-10-06T08:59:21.316Z,1008.3
2022-10-06T09:00:28.428Z,1008.4
2022-10-06T09:01:21.456Z,1008.4
2022-10-06T09:02:24.012Z,1008.4
2022-10-06T09:03:33.517Z,1008.4
2022-10-06T09:04:25.335Z,1008.4
2022-10-06T09:05:27.038Z,1008.4
2022-10-06T09:06:25.555Z,1008.4
2022-10-06T09:07:26.577Z,1008.4
2022-10-06T09:08:43.784Z,1008.4
2022-10-06T09:09:23.893Z,1008.4
2022-10-06T09:10:33.551Z,1008.4
2022-10-06T09:11:20.333Z,1008.4
2022-10-06T09:12:23.912Z,1008.4
2022-10-06T09:13:22.216Z,1008.4
2022-10-06T09:14:32.647Z,1008.4
2022-10-06T09:15:25.612Z,1008.4
2022-10-06T09:16:22.895Z,1008.4
2022-10-06T09:17:31.841Z,1008.4
2022-10-06T09:18:24.731Z,1008.4
2022-10-06T09:19:31.332Z,1008.5
2022-10-06T09:20:24.811Z,1008.5
2022-10-06T09:21:35.496Z,1008.5
2022-10-06T09:22:29.013Z,1008.5
2022-10-06T09:23:26.070Z,1008.5
2022-10-06T09:24:23.458Z,1008.5
2022-10-06T09:25:27.743Z,1008.5
2022-10-06T09:26:27.424Z,1008.5
2022-10-06T09:27:20.919Z,1008.5
2022-10-06T09:28:36.535Z,1008.5
2022-10-06T09:29:29.338Z,1008.5
2022-10-06T09:30:21.617Z,1008.5
2022-10-06T09:31:27.850Z,1008.5
2022-10-06T09:32:29.596Z,1008.5
2022-10-06T09:33:23.739Z,1008.5
2022-10-06T09:34:19.819Z,1008.5
2022-10-06T09:35:31.922Z,1008.5
2022-10-06T09:36:25.341Z,1008.5
2022-10-06T09:37:24.911Z,1008.5
2022-10-06T09:38:35.398Z,1008.5
2022-10-06T09:39:21.095Z,1008.6
2022-10-06T09:40:25.277Z,1008.6
2022-10-06T09:41:19.851Z,1008.6
2022-10-06T09:42:22.862Z,1008.6
2022-10-06T09:43:23.116Z,1008.6
2022-10-06T09:44:21.351Z,1008.6
2022-10-06T09:45:32.588Z,1008.6
2022-10-06T09:46:30.366Z,1008.6
2022-10-06T09:47:23.865Z,1008.5
2022-10-06T09:48:24.594Z,1008.5
2022-10-06T09:49:34.610Z,1008.5
2022-10-06T09:50:26.902Z,1008.6
2022-10-06T09:51:23.951Z,1008.6
2022-10-06T09:52:35.953Z,1008.6
2022-10-06T09:53:29.506Z,1008.6
2022-10-06T09:54:25.838Z,1008.5
2022-10-06T09:55:20.920Z,1008.5
2022-10-06T09:56:30.194Z,1008.5
2022-10-06T09:57:24.091Z,1008.5
2022-10-06T09:58:22.767Z,1008.5
2022-10-06T09:59:35.113Z,1008.5
2022-10-06T10:00:24.572Z,1008.5
2022-10-06T10:01:32.836Z,1008.5
2022-10-06T10:02:35.628Z,1008.5
2022-10-06T10:03:29.719Z,1008.5
2022-10-06T10:04:27.370Z,1008.5
2022-10-06T10:05:23.462Z,1008.5
2022-10-06T10:06:31.464Z,1008.5
2022-10-06T10:07:29.408Z,1008.5
2022-10-06T10:08:23.861Z,1008.5
2022-10-06T10:09:21.979Z,1008.5
2022-10-06T10:10:29.585Z,1008.5
2022-10-06T10:11:21.934Z,1008.4
2022-10-06T10:12:24.146Z,1008.4
2022-10-06T10:13:31.929Z,1008.4
2022-10-06T10:14:32.327Z,1008.4
2022-10-06T10:15:26.385Z,1008.4
2022-10-06T10:16:21.365Z,1008.4
2022-10-06T10:17:22.938Z,1008.4
2022-10-06T10:18:25.630Z,1008.4
2022-10-06T10:19:21.850Z,1008.4
2022-10-06T10:20:22.069Z,1008.4
2022-10-06T10:21:30.002Z,1008.4
2022-10-06T10:22:25.612Z,1008.4
2022-10-06T10:23:28.596Z,1008.4
2022-10-06T10:24:28.575Z,1008.4
2022-10-06T10:25:26.733Z,1008.4
2022-10-06T10:26:29.725Z,1008.4
2022-10-06T10:27:25.142Z,1008.4
2022-10-06T10:28:23.896Z,1008.4
2022-10-06T10:29:23.666Z,1008.4
2022-10-06T10:30:21.641Z,1008.4
2022-10-06T10:31:43.335Z,1008.4
2022-10-06T10:32:26.149Z,1008.4
2022-10-06T10:33:24.059Z,1008.4
2022-10-06T10:34:24.879Z,1008.4
2022-10-06T10:35:21.142Z,1008.4
2022-10-06T10:36:23.525Z,1008.4
2022-10-06T10:37:24.081Z,1008.4
2022-10-06T10:38:32.481Z,1008.4
2022-10-06T10:39:22.151Z,1008.4
2022-10-06T10:40:21.551Z,1008.4
2022-10-06T10:41:25.083Z,1008.4
2022-10-06T10:42:28.061Z,1008.4
2022-10-06T10:43:23.516Z,1008.4
2022-10-06T10:44:19.602Z,1008.4
2022-10-06T10:45:21.562Z,1008.4
2022-10-06T10:46:26.077Z,1008.4
2022-10-06T10:47:25.585Z,1008.4
2022-10-06T10:48:28.166Z,1008.4
2022-10-06T10:49:30.221Z,1008.4
2022-10-06T10:50:23.449Z,1008.4
2022-10-06T10:51:19.578Z,1008.4
2022-10-06T10:52:24.415Z,1008.4
2022-10-06T10:53:25.854Z,1008.3
2022-10-06T10:54:21.507Z,1008.3
2022-10-06T10:55:23.390Z,1008.3
2022-10-06T10:56:23.346Z,1008.3
2022-10-06T10:57:29.229Z,1008.3
2022-10-06T10:58:22.495Z,1008.4
2022-10-06T10:59:26.324Z,1008.4
2022-10-06T11:00:27.314Z,1008.4
2022-10-06T11:01:25.061Z,1008.4
2022-10-06T11:02:30.079Z,1008.4
2022-10-06T11:03:23.012Z,1008.4
2022-10-06T11:04:27.377Z,1008.3
2022-10-06T11:05:19.587Z,1008.3
2022-10-06T11:06:29.598Z,1008.3
2022-10-06T11:07:21.747Z,1008.3
2022-10-06T11:08:22.418Z,1008.3
2022-10-06T11:09:31.784Z,1008.3
2022-10-06T11:10:27.642Z,1008.3
2022-10-06T11:11:23.983Z,1008.3
2022-10-06T11:12:22.362Z,1008.2
2022-10-06T11:13:25.568Z,1008.2
2022-10-06T11:14:27.448Z,1008.2
2022-10-06T11:15:35.607Z,1008.2
2022-10-06T11:16:35.167Z,1008.2
2022-10-06T11:17:29.952Z,1008.2
2022-10-06T11:18:27.451Z,1008.2
2022-10-06T11:19:30.160Z,1008.2
2022-10-06T11:20:26.623Z,1008.2
2022-10-06T11:21:21.950Z,1008.2
2022-10-06T11:22:24.225Z,1008.2
2022-10-06T11:23:31.522Z,1008.2
2022-10-06T11:24:21.424Z,1008.2
2022-10-06T11:25:23.979Z,1008.2
2022-10-06T11:26:21.512Z,1008.1
2022-10-06T11:27:31.533Z,1008.1
2022-10-06T11:28:23.939Z,1008.2
2022-10-06T11:29:21.846Z,1008.2
2022-10-06T11:30:33.861Z,1008.2
2022-10-06T11:31:27.757Z,1008.2
2022-10-06T11:32:23.672Z,1008.2
2022-10-06T11:33:21.937Z,1008.2
2022-10-06T11:34:33.904Z,1008.2
2022-10-06T11:35:30.505Z,1008.2
2022-10-06T11:36:23.482Z,1008.1
2022-10-06T11:37:33.872Z,1008.1
2022-10-06T11:38:30.948Z,1008.1
2022-10-06T11:39:24.007Z,1008.1
2022-10-06T11:40:19.747Z,1008.1
2022-10-06T11:41:26.415Z,1008.1
2022-10-06T11:42:25.784Z,1008.1
2022-10-06T11:43:22.311Z,1008.1
2022-10-06T11:44:36.497Z,1008.1
2022-10-06T11:45:29.183Z,1008.1
2022-10-06T11:46:31.049Z,1008.1
2022-10-06T11:47:35.160Z,1008.1
2022-10-06T11:48:23.360Z,1008.1
2022-10-06T11:49:25.668Z,1008.1
2022-10-06T11:50:23.682Z,1008.1
2022-10-06T11:51:46.936Z,1008.0
2022-10-06T11:52:23.312Z,1008.0
2022-10-06T11:53:23.914Z,1008.0
2022-10-06T11:54:22.199Z,1008.0
2022-10-06T11:55:25.922Z,1008.0
2022-10-06T11:56:28.081Z,1007.9
2022-10-06T11:57:30.918Z,1007.9
2022-10-06T11:58:41.939Z,1007.9
2022-10-06T11:59:27.917Z,1007.9
2022-10-06T12:00:26.146Z,1007.9
2022-10-06T12:01:21.508Z,1007.9
2022-10-06T12:02:34.225Z,1007.9
2022-10-06T12:03:26.102Z,1007.8
2022-10-06T12:04:24.848Z,1007.8
2022-10-06T12:05:55.331Z,1007.8
2022-10-06T12:06:22.260Z,1007.8
2022-10-06T12:07:25.002Z,1007.8
2022-10-06T12:08:24.056Z,1007.8
2022-10-06T12:09:22.906Z,1007.7
2022-10-06T12:10:33.202Z,1007.7
2022-10-06T12:11:23.410Z,1007.7
2022-10-06T12:12:32.124Z,1007.7
2022-10-06T12:14:12.429Z,1007.7
2022-10-06T12:16:58.215Z,1007.7
2022-10-06T12:17:19.510Z,1007.7
2022-10-06T12:17:20.293Z,1007.7
2022-10-06T12:17:20.552Z,1007.7
2022-10-06T12:17:27.712Z,1007.7
2022-10-06T12:18:32.494Z,1007.7
2022-10-06T12:19:22.688Z,1007.7
2022-10-06T12:20:23.725Z,1007.7
2022-10-06T12:21:26.462Z,1007.7
2022-10-06T12:22:20.949Z,1007.7
2022-10-06T12:23:31.519Z,1007.7
2022-10-06T12:24:28.649Z,1007.7
2022-10-06T12:25:21.963Z,1007.7
2022-10-06T12:26:24.289Z,1007.6
2022-10-06T12:27:31.011Z,1007.6
2022-10-06T12:28:26.792Z,1007.6
2022-10-06T12:29:22.145Z,1007.6
2022-10-06T12:30:31.659Z,1007.6
2022-10-06T12:31:25.826Z,1007.6
2022-10-06T12:32:24.632Z,1007.6
2022-10-06T12:33:26.394Z,1007.6
2022-10-06T12:34:27.637Z,1007.6
2022-10-06T12:35:24.350Z,1007.6
2022-10-06T12:36:24.993Z,1007.6
2022-10-06T12:37:23.754Z,1007.6
2022-10-06T12:38:26.177Z,1007.6
2022-10-06T12:39:26.474Z,1007.5
2022-10-06T12:40:36.338Z,1007.5
2022-10-06T12:41:22.832Z,1007.5
2022-10-06T12:42:23.688Z,1007.5
2022-10-06T12:43:19.789Z,1007.5
2022-10-06T12:44:24.430Z,1007.5
2022-10-06T12:45:30.063Z,1007.5
2022-10-06T12:46:21.727Z,1007.4
2022-10-06T12:47:34.086Z,1007.4
2022-10-06T12:48:29.340Z,1007.4
2022-10-06T12:49:20.069Z,1007.4
2022-10-06T12:50:20.007Z,1007.4
2022-10-06T12:51:25.496Z,1007.4
2022-10-06T12:52:28.105Z,1007.4
2022-10-06T12:53:21.691Z,1007.4
2022-10-06T12:54:23.575Z,1007.3
2022-10-06T12:55:25.575Z,1007.3
2022-10-06T12:56:24.138Z,1007.3
2022-10-06T12:57:21.296Z,1007.3
2022-10-06T12:58:32.439Z,1007.3
2022-10-06T12:59:24.219Z,1007.3
2022-10-06T13:00:22.699Z,1007.3
2022-10-06T13:01:31.926Z,1007.3
2022-10-06T13:02:31.112Z,1007.3
2022-10-06T13:03:24.163Z,1007.3
2022-10-06T13:04:23.304Z,1007.3
2022-10-06T13:05:22.259Z,1007.3
2022-10-06T13:06:20.388Z,1007.3
2022-10-06T13:07:24.756Z,1007.2
2022-10-06T13:08:32.003Z,1007.2
2022-10-06T13:09:29.684Z,1007.2
2022-10-06T13:10:23.972Z,1007.2
2022-10-06T13:11:22.511Z,1007.2
2022-10-06T13:12:34.163Z,1007.2
2022-10-06T13:13:31.920Z,1007.2
2022-10-06T13:14:24.616Z,1007.2
2022-10-06T13:15:34.965Z,1007.2
2022-10-06T13:16:31.861Z,1007.2
2022-10-06T13:17:26.582Z,1007.2
2022-10-06T13:18:19.745Z,1007.2
2022-10-06T13:19:25.446Z,1007.2
2022-10-06T13:20:27.649Z,1007.2
2022-10-06T13:21:25.065Z,1007.2
2022-10-06T13:22:22.356Z,1007.2
2022-10-06T13:23:38.161Z,1007.1
2022-10-06T13:24:24.026Z,1007.2
2022-10-06T13:25:21.409Z,1007.2
2022-10-06T13:26:30.922Z,1007.1
2022-10-06T13:27:20.546Z,1007.1
2022-10-06T13:28:22.199Z,1007.2
2022-10-06T13:29:29.785Z,1007.2
2022-10-06T13:30:28.047Z,1007.2
2022-10-06T13:31:24.408Z,1007.2
2022-10-06T13:32:21.313Z,1007.2
2022-10-06T13:33:32.258Z,1007.2
2022-10-06T13:34:26.032Z,1007.2
2022-10-06T13:35:22.081Z,1007.2
2022-10-06T13:36:27.612Z,1007.2
2022-10-06T13:37:27.849Z,1007.2
2022-10-06T13:38:23.889Z,1007.2
2022-10-06T13:39:25.236Z,1007.2
2022-10-06T13:40:44.107Z,1007.1
2022-10-06T13:41:29.142Z,1007.1
2022-10-06T13:42:22.394Z,1007.1
2022-10-06T13:43:38.801Z,1007.1
2022-10-06T13:44:23.504Z,1007.2
2022-10-06T13:45:23.741Z,1007.2
2022-10-06T13:46:20.181Z,1007.2
2022-10-06T13:47:29.673Z,1007.2
2022-10-06T13:48:25.704Z,1007.2
2022-10-06T13:49:22.979Z,1007.2
2022-10-06T13:50:21.749Z,1007.2
2022-10-06T13:51:27.659Z,1007.2
2022-10-06T13:52:23.934Z,1007.2
2022-10-06T13:53:21.743Z,1007.2
2022-10-06T13:54:29.535Z,1007.2
2022-10-06T13:55:28.110Z,1007.2
2022-10-06T13:56:22.611Z,1007.2
2022-10-06T13:57:23.399Z,1007.1
2022-10-06T13:58:27.669Z,1007.1
2022-10-06T13:59:25.340Z,1007.1
2022-10-06T14:00:20.168Z,1007.1
2022-10-06T14:01:34.262Z,1007.1
2022-10-06T14:02:28.759Z,1007.1
2022-10-06T14:03:25.867Z,1007.1
2022-10-06T14:04:28.697Z,1007.1
2022-10-06T14:05:22.075Z,1007.1
2022-10-06T14:06:23.662Z,1007.1
2022-10-06T14:07:30.698Z,1007.1
2022-10-06T14:08:31.773Z,1007.1
2022-10-06T14:09:26.853Z,1007.1
2022-10-06T14:10:23.806Z,1007.1
2022-10-06T14:11:24.369Z,1007.1
2022-10-06T14:12:25.677Z,1007.1
2022-10-06T14:13:24.874Z,1007.1
2022-10-06T14:14:21.922Z,1007.1
2022-10-06T14:15:29.967Z,1007.1
2022-10-06T14:16:27.363Z,1007.1
2022-10-06T14:17:22.866Z,1007.1
2022-10-06T14:18:21.782Z,1007.0
2022-10-06T14:19:35.209Z,1007.0
2022-10-06T14:20:20.916Z,1007.0
2022-10-06T14:21:23.052Z,1007.0
2022-10-06T14:22:25.896Z,1007.0
2022-10-06T14:23:29.541Z,1007.0
2022-10-06T14:24:24.391Z,1007.1
2022-10-06T14:25:27.290Z,1007.1
2022-10-06T14:26:31.159Z,1007.1
2022-10-06T14:27:29.599Z,1007.1
2022-10-06T14:28:22.245Z,1007.1
2022-10-06T14:29:23.997Z,1007.1
2022-10-06T14:30:25.934Z,1007.1
2022-10-06T14:31:24.598Z,1007.1
2022-10-06T14:32:33.633Z,1007.1
2022-10-06T14:33:30.952Z,1007.0
2022-10-06T14:34:23.942Z,1007.0
2022-10-06T14:35:24.482Z,1007.0
2022-10-06T14:36:30.224Z,1007.1
2022-10-06T14:37:28.646Z,1007.0
2022-10-06T14:38:22.540Z,1007.0
2022-10-06T14:39:35.149Z,1007.1
2022-10-06T14:40:24.333Z,1007.1
2022-10-06T14:41:23.923Z,1007.0
2022-10-06T14:42:22.113Z,1007.0
2022-10-06T14:43:29.808Z,1007.0
2022-10-06T14:44:28.516Z,1007.0
2022-10-06T14:45:24.573Z,1007.0
2022-10-06T14:46:33.164Z,1007.0
2022-10-06T14:47:24.809Z,1007.0
2022-10-06T14:48:26.698Z,1007.0
2022-10-06T14:49:21.206Z,1007.0
2022-10-06T14:50:27.086Z,1007.0
2022-10-06T14:51:30.988Z,1007.0
2022-10-06T14:52:27.827Z,1006.9
2022-10-06T14:53:31.629Z,1006.9
2022-10-06T14:54:27.893Z,1006.9
2022-10-06T14:55:25.125Z,1006.9
2022-10-06T14:56:19.932Z,1006.9
2022-10-06T14:57:29.584Z,1006.9
2022-10-06T14:58:22.194Z,1006.9
2022-10-06T14:59:22.461Z,1006.9
2022-10-06T15:00:22.811Z,1006.9
2022-10-06T15:01:30.438Z,1006.9
2022-10-06T15:02:27.023Z,1006.9
2022-10-06T15:03:24.986Z,1006.9
2022-10-06T15:04:35.688Z,1006.9
2022-10-06T15:05:26.270Z,1006.9
2022-10-06T15:06:21.793Z,1006.9
2022-10-06T15:07:27.824Z,1006.9